createdAt,value
2023-02-19T00:02:17.300Z,3.13
2023-02-19T00:04:59.692Z,3.80
2023-02-19T00:07:32.501Z,3.05
2023-02-19T00:10:22.843Z,3.25
2023-02-19T00:13:09.710Z,3.45
2023-02-19T00:15:45.360Z,3.67
2023-02-19T00:18:26.465Z,3.63
2023-02-19T00:20:59.028Z,3.70
2023-02-19T00:23:32.539Z,3.25
2023-02-19T00:26:18.253Z,3.22
2023-02-19T00:28:53.983Z,3.28
2023-02-19T00:31:35.507Z,3.40
2023-02-19T00:34:10.663Z,3.47
2023-02-19T00:36:43.914Z,2.97
2023-02-19T00:39:27.082Z,3.10
2023-02-19T00:42:00.854Z,3.58
2023-02-19T00:44:42.247Z,3.10
2023-02-19T00:47:15.874Z,3.20
2023-02-19T00:49:54.645Z,3.45
2023-02-19T00:52:28.392Z,3.25
2023-02-19T00:55:00.981Z,3.10
2023-02-19T00:57:33.526Z,3.28
2023-02-19T01:00:10.711Z,3.38
2023-02-19T01:02:54.810Z,2.92
2023-02-19T01:05:36.222Z,2.70
2023-02-19T01:08:08.818Z,3.45
2023-02-19T01:10:41.491Z,2.42
2023-02-19T01:13:18.412Z,3.03
2023-02-19T01:16:14.260Z,2.83
2023-02-19T01:19:13.082Z,3.05
2023-02-19T01:21:48.450Z,2.80
2023-02-19T01:24:20.994Z,2.40
2023-02-19T01:26:56.837Z,2.88
2023-02-19T01:29:38.798Z,2.58
2023-02-19T01:32:20.602Z,3.05
2023-02-19T01:34:59.686Z,2.80
2023-02-19T01:37:32.354Z,2.45
2023-02-19T01:40:05.476Z,2.50
2023-02-19T01:42:44.019Z,2.53
2023-02-19T01:45:32.719Z,2.60
2023-02-19T01:48:14.409Z,2.50
2023-02-19T01:51:07.037Z,2.20
2023-02-19T01:53:47.240Z,2.70
2023-02-19T01:56:22.014Z,2.38
2023-02-19T01:58:54.906Z,2.28
2023-02-19T02:01:27.659Z,2.42
2023-02-19T02:04:01.019Z,2.15
2023-02-19T02:06:53.052Z,2.33
2023-02-19T02:09:49.590Z,1.90
2023-02-19T02:12:22.092Z,1.92
2023-02-19T02:14:54.839Z,1.83
2023-02-19T02:17:40.139Z,2.20
2023-02-19T02:20:28.049Z,1.80
2023-02-19T02:23:46.723Z,2.20
2023-02-19T02:26:35.024Z,2.08
2023-02-19T02:29:32.156Z,2.00
2023-02-19T02:32:18.013Z,2.03
2023-02-19T02:35:07.646Z,1.90
2023-02-19T02:37:44.711Z,1.83
2023-02-19T02:40:19.287Z,2.00
2023-02-19T02:42:51.921Z,2.10
2023-02-19T02:45:37.094Z,1.80
2023-02-19T02:48:26.236Z,2.00
2023-02-19T02:51:12.583Z,1.75
2023-02-19T02:54:12.028Z,1.88
2023-02-19T02:56:47.880Z,1.95
2023-02-19T02:59:27.056Z,1.58
2023-02-19T03:02:22.915Z,1.83
2023-02-19T03:05:28.468Z,2.00
2023-02-19T03:08:24.433Z,1.42
2023-02-19T03:11:29.501Z,1.60
2023-02-19T03:14:34.970Z,1.70
2023-02-19T03:17:37.763Z,1.80
2023-02-19T03:20:15.703Z,1.63
2023-02-19T03:22:52.210Z,1.52
2023-02-19T03:25:50.428Z,1.90
2023-02-19T03:28:47.212Z,1.50
2023-02-19T03:31:24.880Z,1.50
2023-02-19T03:34:08.536Z,1.50
2023-02-19T03:36:48.136Z,1.63
2023-02-19T03:39:24.375Z,1.52
2023-02-19T03:42:24.509Z,1.75
2023-02-19T03:45:09.501Z,1.50
2023-02-19T03:47:54.480Z,1.67
2023-02-19T03:50:50.384Z,1.38
2023-02-19T03:54:04.352Z,1.50
2023-02-19T03:56:58.766Z,1.70
2023-02-19T03:59:57.194Z,1.63
2023-02-19T04:02:50.578Z,1.52
2023-02-19T04:05:29.641Z,1.35
2023-02-19T04:08:15.191Z,1.40
2023-02-19T04:10:51.659Z,1.60
2023-02-19T04:13:36.458Z,1.27
2023-02-19T04:16:18.531Z,1.70
2023-02-19T04:19:02.742Z,1.52
2023-02-19T04:21:39.396Z,1.50
2023-02-19T04:24:31.065Z,1.42
2023-02-19T04:27:06.403Z,1.40
2023-02-19T04:32:35.475Z,1.45
2023-02-19T04:35:08.577Z,1.25
2023-02-19T04:37:41.109Z,1.27
2023-02-19T04:40:13.920Z,1.73
2023-02-19T04:42:46.437Z,1.00
2023-02-19T04:45:19.116Z,1.17
2023-02-19T04:47:51.735Z,1.42
2023-02-19T04:50:26.265Z,1.30
2023-02-19T04:53:14.224Z,1.35
2023-02-19T04:58:45.820Z,1.20
2023-02-19T05:01:18.695Z,1.30
2023-02-19T05:03:51.987Z,1.30
2023-02-19T05:06:24.732Z,1.33
2023-02-19T05:09:12.278Z,1.40
2023-02-19T05:11:44.833Z,1.13
2023-02-19T05:14:17.615Z,1.25
2023-02-19T05:16:50.246Z,1.10
2023-02-19T05:19:23.083Z,1.30
2023-02-19T05:21:55.805Z,1.13
2023-02-19T05:24:28.708Z,1.40
2023-02-19T05:27:01.213Z,1.30
2023-02-19T05:29:33.801Z,1.17
2023-02-19T05:32:06.342Z,1.30
2023-02-19T05:34:41.197Z,1.27
2023-02-19T05:37:14.335Z,1.50
2023-02-19T05:39:48.969Z,1.15
2023-02-19T05:42:24.625Z,1.33
2023-02-19T05:44:59.218Z,0.98
2023-02-19T05:47:31.819Z,1.02
2023-02-19T05:50:06.014Z,1.00
2023-02-19T05:55:12.421Z,1.75
2023-02-19T05:57:48.099Z,1.10
2023-02-19T06:00:21.656Z,1.20
2023-02-19T06:02:54.763Z,0.90
2023-02-19T06:05:27.625Z,1.33
2023-02-19T06:08:00.259Z,1.08
2023-02-19T06:10:32.962Z,1.02
2023-02-19T06:13:05.711Z,1.02
2023-02-19T06:15:39.155Z,1.15
2023-02-19T06:18:11.648Z,1.20
2023-02-19T06:20:44.225Z,1.00
2023-02-19T06:23:16.756Z,1.40
2023-02-19T06:25:49.296Z,1.10
2023-02-19T06:28:21.965Z,1.02
2023-02-19T06:30:54.728Z,1.30
2023-02-19T06:33:28.767Z,1.10
2023-02-19T06:36:04.297Z,1.08
2023-02-19T06:38:37.251Z,1.20
2023-02-19T06:41:12.149Z,1.67
2023-02-19T06:43:46.626Z,1.00
2023-02-19T06:46:19.298Z,0.95
2023-02-19T06:48:52.116Z,0.93
2023-02-19T06:51:27.160Z,1.00
2023-02-19T06:54:11.952Z,1.25
2023-02-19T06:57:00.475Z,1.08
2023-02-19T06:59:33.116Z,1.02
2023-02-19T07:02:06.018Z,1.20
2023-02-19T07:04:38.602Z,1.33
2023-02-19T07:07:12.252Z,1.00
2023-02-19T07:09:44.801Z,0.98
2023-02-19T07:12:17.344Z,0.95
2023-02-19T07:14:50.107Z,0.85
2023-02-19T07:17:22.719Z,1.10
2023-02-19T07:19:55.336Z,1.05
2023-02-19T07:22:27.984Z,1.08
2023-02-19T07:25:00.521Z,1.13
2023-02-19T07:27:33.217Z,1.15
2023-02-19T07:30:10.002Z,1.00
2023-02-19T07:32:42.869Z,0.82
2023-02-19T07:35:15.800Z,1.20
2023-02-19T07:38:08.824Z,0.95
2023-02-19T07:40:51.180Z,1.45
2023-02-19T07:43:26.193Z,0.80
2023-02-19T07:46:02.170Z,0.95
2023-02-19T07:48:42.585Z,0.77
2023-02-19T07:51:21.851Z,1.02
2023-02-19T07:53:54.467Z,0.82
2023-02-19T07:56:28.838Z,1.20
2023-02-19T07:59:01.380Z,1.00
2023-02-19T08:01:52.712Z,0.82
2023-02-19T08:04:25.333Z,1.05
2023-02-19T08:06:57.869Z,1.00
2023-02-19T08:09:30.499Z,1.02
2023-02-19T08:12:21.820Z,0.82
2023-02-19T08:14:54.571Z,0.73
2023-02-19T08:17:27.173Z,1.20
2023-02-19T08:19:59.759Z,1.25
2023-02-19T08:22:32.258Z,1.08
2023-02-19T08:25:08.462Z,0.90
2023-02-19T08:27:41.010Z,1.08
2023-02-19T08:30:13.801Z,0.80
2023-02-19T08:32:46.314Z,0.77
2023-02-19T08:35:18.899Z,1.10
2023-02-19T08:37:51.994Z,1.20
2023-02-19T08:40:26.260Z,1.02
2023-02-19T08:43:11.422Z,0.80
2023-02-19T08:45:47.328Z,1.00
2023-02-19T08:48:19.947Z,1.10
2023-02-19T08:50:58.129Z,0.90
2023-02-19T08:53:35.579Z,1.30
2023-02-19T08:56:12.570Z,0.90
2023-02-19T08:58:56.813Z,0.82
2023-02-19T09:01:34.988Z,0.77
2023-02-19T09:04:12.635Z,0.77
2023-02-19T09:06:45.320Z,0.93
2023-02-19T09:09:17.972Z,1.48
2023-02-19T09:11:50.674Z,1.00
2023-02-19T09:14:23.350Z,0.95
2023-02-19T09:16:58.009Z,1.00
2023-02-19T09:19:31.214Z,1.00
2023-02-19T09:22:05.773Z,1.00
2023-02-19T09:24:43.688Z,0.88
2023-02-19T09:27:20.245Z,1.05
2023-02-19T09:29:53.116Z,1.02
2023-02-19T09:32:25.894Z,1.10
2023-02-19T09:34:58.646Z,0.93
2023-02-19T09:37:34.226Z,1.08
2023-02-19T09:40:10.326Z,1.20
2023-02-19T09:42:44.171Z,0.90
2023-02-19T09:45:24.934Z,1.20
2023-02-19T09:48:07.563Z,1.27
2023-02-19T09:50:47.709Z,1.10
2023-02-19T09:53:42.089Z,1.10
2023-02-19T09:56:17.152Z,1.20
2023-02-19T09:58:58.299Z,1.02
2023-02-19T10:01:41.048Z,1.00
2023-02-19T10:04:13.801Z,1.08
2023-02-19T10:06:51.266Z,1.15
2023-02-19T10:09:32.829Z,1.20
2023-02-19T10:12:16.301Z,1.20
2023-02-19T10:14:55.861Z,1.10
2023-02-19T10:17:34.744Z,1.52
2023-02-19T10:20:17.487Z,1.35
2023-02-19T10:23:00.350Z,1.10
2023-02-19T10:25:45.320Z,1.30
2023-02-19T10:28:22.464Z,1.13
2023-02-19T10:30:59.284Z,1.20
2023-02-19T10:33:32.118Z,1.40
2023-02-19T10:36:07.911Z,1.38
2023-02-19T10:38:47.549Z,1.73
2023-02-19T10:41:25.297Z,1.50
2023-02-19T10:44:21.831Z,1.67
2023-02-19T10:46:59.297Z,1.30
2023-02-19T10:49:44.049Z,1.40
2023-02-19T10:52:31.870Z,1.38
2023-02-19T10:55:26.427Z,1.40
2023-02-19T10:58:24.097Z,1.80
2023-02-19T11:01:21.666Z,1.83
2023-02-19T11:04:18.275Z,1.60
2023-02-19T11:06:51.614Z,2.13
2023-02-19T11:09:49.643Z,1.40
2023-02-19T11:12:29.961Z,1.77
2023-02-19T11:15:38.787Z,1.98
2023-02-19T11:18:25.964Z,1.70
2023-02-19T11:21:05.625Z,1.80
2023-02-19T11:23:47.245Z,1.98
2023-02-19T11:26:38.300Z,1.63
2023-02-19T11:29:24.546Z,1.90
2023-02-19T11:32:22.478Z,1.83
2023-02-19T11:35:18.755Z,1.77
2023-02-19T11:37:59.106Z,1.88
2023-02-19T11:40:41.706Z,2.03
2023-02-19T11:43:56.144Z,2.22
2023-02-19T11:46:46.581Z,2.10
2023-02-19T11:50:01.849Z,2.00
2023-02-19T11:53:22.006Z,1.92
2023-02-19T11:56:24.291Z,1.80
2023-02-19T11:59:40.561Z,1.85
2023-02-19T12:02:51.596Z,2.00
2023-02-19T12:05:42.396Z,1.90
2023-02-19T12:09:00.305Z,1.70
2023-02-19T12:11:53.580Z,1.52
2023-02-19T12:15:04.888Z,1.60
2023-02-19T12:17:52.556Z,2.08
2023-02-19T12:21:18.717Z,1.55
2023-02-19T12:24:32.969Z,1.73
2023-02-19T12:27:35.025Z,1.70
2023-02-19T12:30:46.518Z,1.58
2023-02-19T12:33:34.201Z,1.58
2023-02-19T12:36:35.273Z,1.67
2023-02-19T12:39:39.101Z,1.55
2023-02-19T12:42:40.115Z,1.58
2023-02-19T12:45:34.245Z,1.48
2023-02-19T12:48:20.422Z,1.30
2023-02-19T12:51:21.335Z,1.25
2023-02-19T12:54:12.528Z,1.15
2023-02-19T12:57:04.421Z,1.42
2023-02-19T12:59:57.596Z,1.40
2023-02-19T13:02:53.603Z,1.13
2023-02-19T13:06:01.624Z,1.20
2023-02-19T13:09:05.507Z,0.90
2023-02-19T13:11:49.261Z,1.10
2023-02-19T13:14:34.593Z,1.13
2023-02-19T13:17:19.790Z,1.00
2023-02-19T13:20:01.798Z,1.10
2023-02-19T13:23:16.631Z,1.10
2023-02-19T13:26:10.841Z,1.10
2023-02-19T13:29:00.491Z,1.00
2023-02-19T13:31:55.219Z,0.85
2023-02-19T13:37:31.690Z,1.15
2023-02-19T13:40:24.985Z,1.10
2023-02-19T13:43:02.360Z,0.80
2023-02-19T13:45:46.185Z,0.80
2023-02-19T13:48:38.147Z,0.80
2023-02-19T13:51:23.546Z,0.80
2023-02-19T13:54:40.226Z,0.60
2023-02-19T13:57:26.970Z,0.77
2023-02-19T14:00:00.202Z,0.80
2023-02-19T14:02:45.912Z,0.60
2023-02-19T14:06:06.395Z,0.80
2023-02-19T14:08:56.243Z,0.60
2023-02-19T14:11:44.329Z,0.75
2023-02-19T14:14:23.418Z,0.65
2023-02-19T14:17:04.730Z,0.60
2023-02-19T14:20:11.917Z,0.43
2023-02-19T14:22:47.363Z,0.60
2023-02-19T14:25:31.950Z,0.50
2023-02-19T14:28:10.542Z,0.45
2023-02-19T14:31:02.673Z,0.50
2023-02-19T14:33:43.394Z,0.40
2023-02-19T14:36:37.536Z,0.45
2023-02-19T14:39:29.796Z,0.50
2023-02-19T14:42:12.842Z,0.57
2023-02-19T14:44:58.816Z,0.60
2023-02-19T14:47:35.093Z,0.50
2023-02-19T14:50:23.799Z,0.57
2023-02-19T14:53:02.962Z,0.50
2023-02-19T14:55:43.046Z,0.47
2023-02-19T14:58:25.745Z,0.50
2023-02-19T15:00:58.561Z,0.73
2023-02-19T15:03:37.742Z,0.57
2023-02-19T15:06:19.769Z,0.80
2023-02-19T15:08:59.155Z,0.70
2023-02-19T15:11:35.417Z,0.57
2023-02-19T15:14:20.479Z,0.50
2023-02-19T15:17:02.475Z,0.50
2023-02-19T15:19:39.683Z,0.50
2023-02-19T15:22:21.029Z,0.50
2023-02-19T15:24:54.564Z,0.55
2023-02-19T15:27:27.283Z,0.60
2023-02-19T15:30:02.631Z,0.70
2023-02-19T15:32:35.438Z,0.60
2023-02-19T15:35:19.831Z,0.47
2023-02-19T15:40:31.278Z,0.40
2023-02-19T15:43:04.916Z,0.50
2023-02-19T15:45:48.146Z,0.93
2023-02-19T15:48:32.569Z,0.60
2023-02-19T15:53:58.848Z,0.60
2023-02-19T15:56:38.486Z,0.40
2023-02-19T15:59:36.640Z,0.57
2023-02-19T16:02:14.202Z,0.60
2023-02-19T16:04:47.530Z,0.60
2023-02-19T16:07:31.952Z,0.60
2023-02-19T16:13:02.037Z,0.50
2023-02-19T16:15:35.792Z,0.65
2023-02-19T16:18:15.072Z,0.65
2023-02-19T16:20:48.598Z,0.70
2023-02-19T16:23:24.420Z,0.60
2023-02-19T16:26:03.504Z,0.88
2023-02-19T16:28:42.672Z,0.40
2023-02-19T16:31:15.765Z,0.43
2023-02-19T16:33:51.697Z,0.60
2023-02-19T16:36:48.660Z,0.60
2023-02-19T16:39:37.640Z,0.65
2023-02-19T16:42:15.535Z,0.63
2023-02-19T16:44:48.518Z,0.52
2023-02-19T16:47:34.377Z,0.50
2023-02-19T16:50:17.555Z,0.60
2023-02-19T16:53:03.117Z,0.60
2023-02-19T16:55:41.864Z,0.60
2023-02-19T16:58:23.791Z,0.70
2023-02-19T17:01:13.473Z,0.60
2023-02-19T17:03:48.839Z,0.50
2023-02-19T17:06:35.163Z,0.80
2023-02-19T17:09:16.717Z,0.65
2023-02-19T17:11:52.063Z,0.77
2023-02-19T17:14:24.802Z,0.60
2023-02-19T17:16:57.492Z,0.70
2023-02-19T17:19:45.278Z,0.60
2023-02-19T17:22:18.187Z,0.63
2023-02-19T17:24:57.056Z,0.50
2023-02-19T17:27:35.654Z,0.50
2023-02-19T17:30:27.613Z,0.50
2023-02-19T17:33:00.422Z,0.60
2023-02-19T17:35:33.093Z,0.55
2023-02-19T17:38:09.461Z,0.40
2023-02-19T17:40:42.029Z,0.70
2023-02-19T17:43:14.903Z,0.40
2023-02-19T17:45:47.552Z,0.65
2023-02-19T17:48:20.255Z,0.60
2023-02-19T17:50:52.944Z,0.70
2023-02-19T17:53:25.492Z,0.80
2023-02-19T17:55:58.067Z,0.70
2023-02-19T17:58:30.921Z,0.68
2023-02-19T18:01:03.648Z,0.65
2023-02-19T18:03:36.178Z,0.80
2023-02-19T18:06:08.767Z,0.60
2023-02-19T18:08:51.610Z,0.73
2023-02-19T18:11:24.389Z,0.95
2023-02-19T18:13:57.276Z,0.73
2023-02-19T18:16:37.856Z,0.70
2023-02-19T18:19:10.719Z,0.70
2023-02-19T18:21:43.405Z,0.68
2023-02-19T18:24:16.025Z,0.60
2023-02-19T18:26:48.609Z,0.70
2023-02-19T18:29:29.055Z,0.80
2023-02-19T18:32:07.798Z,0.60
2023-02-19T18:34:56.744Z,0.60
2023-02-19T18:37:43.038Z,0.70
2023-02-19T18:40:15.712Z,0.70
2023-02-19T18:42:48.841Z,0.60
2023-02-19T18:45:21.554Z,0.60
2023-02-19T18:47:54.296Z,0.60
2023-02-19T18:50:26.970Z,0.70
2023-02-19T18:52:59.535Z,0.80
2023-02-19T18:55:44.355Z,0.70
2023-02-19T18:58:18.727Z,0.70
2023-02-19T19:00:51.989Z,0.80
2023-02-19T19:03:24.967Z,0.70
2023-02-19T19:05:58.471Z,0.68
2023-02-19T19:08:31.038Z,0.77
2023-02-19T19:11:09.700Z,0.70
2023-02-19T19:13:42.396Z,0.70
2023-02-19T19:16:15.031Z,0.60
2023-02-19T19:18:47.635Z,0.68
2023-02-19T19:21:21.341Z,0.57
2023-02-19T19:23:53.878Z,0.50
2023-02-19T19:26:26.398Z,0.60
2023-02-19T19:28:58.965Z,0.70
2023-02-19T19:31:37.592Z,0.50
2023-02-19T19:34:12.034Z,0.60
2023-02-19T19:36:45.556Z,0.50
2023-02-19T19:39:27.163Z,0.70
2023-02-19T19:41:59.881Z,0.60
2023-02-19T19:44:32.520Z,0.68
2023-02-19T19:47:05.116Z,0.60
2023-02-19T19:49:37.797Z,0.50
2023-02-19T19:52:10.373Z,0.55
2023-02-19T19:54:46.289Z,0.70
2023-02-19T19:57:18.838Z,0.70
2023-02-19T19:59:51.939Z,0.80
2023-02-19T20:02:24.940Z,0.77
2023-02-19T20:04:57.563Z,0.70
2023-02-19T20:07:30.439Z,0.75
2023-02-19T20:10:03.496Z,0.65
2023-02-19T20:12:36.082Z,0.70
2023-02-19T20:15:10.122Z,0.60
2023-02-19T20:17:55.248Z,0.50
2023-02-19T20:20:28.065Z,0.52
2023-02-19T20:23:00.822Z,0.55
2023-02-19T20:25:34.120Z,0.60
2023-02-19T20:28:06.799Z,0.70
2023-02-19T20:30:39.426Z,0.60
2023-02-19T20:33:12.145Z,0.60
2023-02-19T20:35:50.665Z,0.60
2023-02-19T20:38:29.225Z,0.70
2023-02-19T20:41:14.324Z,0.60
2023-02-19T20:43:55.870Z,0.50
2023-02-19T20:46:46.320Z,0.52
2023-02-19T20:49:22.259Z,0.65
2023-02-19T20:52:04.726Z,0.60
2023-02-19T20:54:38.373Z,0.70
2023-02-19T20:57:12.210Z,0.60
2023-02-19T20:59:44.936Z,0.60
2023-02-19T21:02:27.920Z,0.55
2023-02-19T21:05:01.445Z,0.50
2023-02-19T21:07:34.138Z,0.60
2023-02-19T21:10:07.722Z,0.75
2023-02-19T21:12:50.662Z,0.57
2023-02-19T21:15:24.120Z,0.50
2023-02-19T21:17:56.830Z,0.60
2023-02-19T21:20:29.449Z,0.60
2023-02-19T21:23:02.128Z,0.60
2023-02-19T21:25:35.691Z,0.60
2023-02-19T21:28:09.776Z,0.70
2023-02-19T21:33:39.237Z,1.05
2023-02-19T21:36:24.186Z,0.70
2023-02-19T21:39:02.972Z,0.70
2023-02-19T21:41:38.312Z,0.50
2023-02-19T21:44:11.477Z,0.60
2023-02-19T21:46:44.097Z,0.60
2023-02-19T21:49:17.876Z,0.60
2023-02-19T21:51:50.469Z,0.70
2023-02-19T21:54:25.456Z,0.60
2023-02-19T21:57:03.139Z,0.70
2023-02-19T21:59:35.703Z,0.70
2023-02-19T22:02:28.574Z,0.80
2023-02-19T22:05:02.527Z,0.90
2023-02-19T22:07:40.945Z,0.90
2023-02-19T22:10:16.849Z,0.95
2023-02-19T22:12:58.981Z,0.90
2023-02-19T22:15:31.556Z,1.05
2023-02-19T22:18:04.546Z,0.98
2023-02-19T22:23:35.433Z,0.82
2023-02-19T22:26:24.513Z,1.08
2023-02-19T22:28:59.276Z,0.90
2023-02-19T22:31:38.228Z,0.80
2023-02-19T22:34:12.162Z,1.08
2023-02-19T22:36:44.800Z,1.20
2023-02-19T22:39:24.814Z,0.90
2023-02-19T22:41:57.612Z,0.80
2023-02-19T22:44:30.211Z,1.00
2023-02-19T22:47:03.086Z,1.00
2023-02-19T22:49:39.486Z,1.20
2023-02-19T22:52:12.943Z,1.00
2023-02-19T22:54:46.693Z,1.20
2023-02-19T22:57:19.427Z,1.13
2023-02-19T22:59:52.051Z,1.17
2023-02-19T23:02:24.774Z,1.00
2023-02-19T23:04:57.499Z,1.00
2023-02-19T23:07:50.714Z,1.00
2023-02-19T23:10:23.501Z,1.25
2023-02-19T23:13:02.296Z,0.95
2023-02-19T23:15:47.064Z,1.08
2023-02-19T23:18:22.172Z,1.00
2023-02-19T23:20:54.676Z,1.17
2023-02-19T23:23:27.359Z,1.20
2023-02-19T23:26:00.278Z,1.13
2023-02-19T23:28:33.032Z,1.35
2023-02-19T23:31:05.798Z,1.17
2023-02-19T23:33:39.701Z,1.15
2023-02-19T23:36:14.185Z,1.13
2023-02-19T23:38:47.802Z,1.20
2023-02-19T23:41:20.566Z,1.17
2023-02-19T23:43:53.360Z,1.23
2023-02-19T23:46:26.124Z,1.50
2023-02-19T23:48:59.900Z,1.33
2023-02-19T23:51:34.733Z,1.30
2023-02-19T23:54:07.724Z,1.20
2023-02-19T23:56:40.455Z,1.30
2023-02-19T23:59:13.308Z,1.38
